Oregon State Flying Club

The Oregon State Flying Club is a non-profit organization committed to providing safe and inexpensive flying to the Oregon State University and Linn-Benton Community College communities. The Club currently owns three aircraft based at the Corvallis Airport for training, travel, and recreational purposes. Founded in 1952 and incorporated in 1956 the OSFC is one of the oldest continuously active flying clubs in the United States.

News & Announcements

Monthly Board Meeting

Next Meeting: Wednesday, July 20, 6pm, @ CVO

Current METAR KCVO

Raw METAR:  KCVO 020015Z 05008KT 10SM 30/08 A3004 RMK AO1

This is a report for Corvallis Municipal Automatic Weather Observing / Reporting System, United States. The report was made a moment ago, at 00:15 UTC. The wind was blowing at a speed of 9.2 miles per hour (4.1 meters per second) from northeast (050°). The temperature was 86 °F (30 °C), with a dew-point at 46 °F (8 °C). The temperature felt like 83 °F (28 °C). The atmospheric pressure was 30.04 inHg (1017 hPa). The relative humidity was 25.3%. The overall visibility was 10.0 miles (16.1 kilometers).